Time;durP1;ratioP1;P1;durP2;ratioP2;P2;SDS_P1;SDS_P2;PMS_P1;PMS_P2;Temp;Humidity;BMP_temperature;BMP_pressure;BME280_temperature;BME280_humidity;BME280_pressure;Samples;Min_cycle;Max_cycle;Signal;HPM_P1;HPM_P2
2022/10/06 00:01:25;;;;;;;15.75;11.40;;;16.80;80.10;;;;;;5073104;28;20032;-12
2022/10/06 00:03:51;;;;;;;16.10;11.68;;;16.80;80.10;;;;;;5073529;28;20035;-12
2022/10/06 00:06:18;;;;;;;17.33;12.10;;;16.80;80.10;;;;;;5074398;28;20020;-12
2022/10/06 00:08:45;;;;;;;15.52;10.50;;;16.80;80.10;;;;;;5077187;28;20028;-12
2022/10/06 00:11:13;;;;;;;22.48;15.43;;;16.80;80.00;;;;;;5076701;28;20032;-13
2022/10/06 00:13:39;;;;;;;17.23;12.35;;;16.80;80.30;;;;;;5076611;28;20024;-12
2022/10/06 00:16:16;;;;;;;15.63;12.18;;;16.80;80.20;;;;;;5076727;28;20111;-13
2022/10/06 00:18:42;;;;;;;17.73;12.02;;;16.90;80.20;;;;;;5077060;28;20111;-12
2022/10/06 00:21:08;;;;;;;16.70;11.85;;;16.80;80.20;;;;;;5076355;28;20024;-12
2022/10/06 00:23:34;;;;;;;17.45;12.68;;;16.80;80.20;;;;;;5076546;28;20074;-12
2022/10/06 00:26:00;;;;;;;18.65;12.98;;;16.80;80.40;;;;;;5075511;28;20395;-12
2022/10/06 00:28:26;;;;;;;17.88;13.30;;;16.90;80.40;;;;;;5076444;28;20058;-12
2022/10/06 00:30:52;;;;;;;19.95;13.85;;;16.90;80.40;;;;;;5076223;28;20031;-11
2022/10/06 00:33:19;;;;;;;17.10;12.30;;;16.90;80.60;;;;;;5076679;28;20025;-12
2022/10/06 00:35:45;;;;;;;18.75;14.40;;;16.90;80.40;;;;;;5076234;28;20480;-11
2022/10/06 00:38:13;;;;;;;23.73;16.58;;;16.90;80.60;;;;;;5076593;28;20166;-12
2022/10/06 00:40:48;;;;;;;17.50;13.15;;;16.90;80.60;;;;;;5076394;28;20376;-12
2022/10/06 00:43:35;;;;;;;16.17;12.27;;;16.90;80.50;;;;;;5076563;28;20025;-12
2022/10/06 00:46:01;;;;;;;18.38;13.30;;;16.90;80.50;;;;;;5076408;28;20074;-12
2022/10/06 00:48:29;;;;;;;17.70;13.05;;;16.90;80.60;;;;;;5076484;28;20111;-13
2022/10/06 00:50:57;;;;;;;16.55;11.75;;;16.90;80.60;;;;;;5075889;28;20021;-13
2022/10/06 00:53:29;;;;;;;17.33;12.90;;;17.00;80.70;;;;;;5076267;28;20054;-12
2022/10/06 00:55:56;;;;;;;16.40;11.30;;;17.00;80.60;;;;;;5075972;28;20036;-12
2022/10/06 00:58:23;;;;;;;16.45;12.05;;;17.00;80.60;;;;;;5076352;28;20369;-11
2022/10/06 01:00:53;;;;;;;19.75;13.73;;;17.00;80.50;;;;;;5075720;28;20086;-12
2022/10/06 01:03:36;;;;;;;17.88;12.77;;;17.10;80.60;;;;;;5076692;28;20029;-12
2022/10/06 01:06:03;;;;;;;18.55;13.10;;;17.10;80.50;;;;;;5075990;28;20037;-12
2022/10/06 01:08:31;;;;;;;16.30;12.60;;;17.10;80.50;;;;;;5076032;28;20099;-11
2022/10/06 01:10:57;;;;;;;15.77;12.07;;;17.10;80.50;;;;;;5075744;28;20044;-12
2022/10/06 01:13:23;;;;;;;18.58;12.82;;;17.10;80.60;;;;;;5076120;28;20029;-12
2022/10/06 01:16:02;;;;;;;18.90;12.98;;;17.10;80.50;;;;;;5075904;28;20031;-12
2022/10/06 01:18:31;;;;;;;18.45;13.15;;;17.20;80.50;;;;;;5075361;28;20107;-13
2022/10/06 01:21:12;;;;;;;16.92;12.40;;;17.20;80.50;;;;;;5075526;28;20067;-12
2022/10/06 01:23:39;;;;;;;17.80;12.45;;;17.20;80.40;;;;;;5075495;28;20071;-11
2022/10/06 01:26:10;;;;;;;17.42;12.60;;;17.20;80.50;;;;;;5075285;28;20028;-11
2022/10/06 01:28:38;;;;;;;15.43;12.07;;;17.20;80.50;;;;;;5075440;28;20024;-10
2022/10/06 01:31:05;;;;;;;19.98;13.02;;;17.20;80.40;;;;;;5075113;28;20033;-11
2022/10/06 01:33:31;;;;;;;16.45;12.50;;;17.20;80.40;;;;;;5075562;28;20051;-11
2022/10/06 01:35:57;;;;;;;16.73;13.00;;;17.30;80.50;;;;;;5075432;28;20480;-12
2022/10/06 01:38:23;;;;;;;16.17;12.65;;;17.30;80.60;;;;;;5075173;28;20496;-12
2022/10/06 01:40:51;;;;;;;20.63;13.38;;;17.20;80.60;;;;;;5075222;28;20032;-13
2022/10/06 01:43:17;;;;;;;16.92;11.82;;;17.30;80.60;;;;;;5075080;28;20070;-12
2022/10/06 01:45:43;;;;;;;17.63;12.70;;;17.30;80.40;;;;;;5074808;28;20139;-11
2022/10/06 01:48:09;;;;;;;17.40;12.52;;;17.30;80.40;;;;;;5074151;28;20107;-12
2022/10/06 01:50:35;;;;;;;19.55;13.43;;;17.30;80.50;;;;;;5075404;28;20017;-12
2022/10/06 01:53:01;;;;;;;18.85;13.85;;;17.30;80.60;;;;;;5075163;28;20108;-12
2022/10/06 01:55:27;;;;;;;19.10;13.50;;;17.30;80.50;;;;;;5075124;28;20090;-12
2022/10/06 01:57:53;;;;;;;14.80;11.25;;;17.30;80.50;;;;;;5075073;28;20028;-12
2022/10/06 02:00:19;;;;;;;17.90;13.02;;;17.30;80.40;;;;;;5074722;28;20541;-12
2022/10/06 02:02:45;;;;;;;16.67;12.55;;;17.30;80.40;;;;;;5074686;28;20107;-12
2022/10/06 02:05:11;;;;;;;17.75;13.85;;;17.30;80.50;;;;;;5074218;28;20131;-12
2022/10/06 02:07:37;;;;;;;18.67;14.10;;;17.30;80.60;;;;;;5074565;28;20040;-12
2022/10/06 02:10:05;;;;;;;15.35;10.65;;;17.30;80.50;;;;;;5074552;28;20029;-12
2022/10/06 02:12:33;;;;;;;18.60;14.25;;;17.40;80.40;;;;;;5074753;28;20123;-12
2022/10/06 02:14:59;;;;;;;22.17;15.00;;;17.40;80.40;;;;;;5074237;28;20103;-12
2022/10/06 02:17:25;;;;;;;20.25;14.68;;;17.40;80.70;;;;;;5074396;28;20074;-12
2022/10/06 02:19:51;;;;;;;17.35;13.18;;;17.30;80.60;;;;;;5074540;28;20029;-12
2022/10/06 02:22:17;;;;;;;16.35;12.32;;;17.30;80.80;;;;;;5073283;28;20107;-12
2022/10/06 02:24:43;;;;;;;21.55;15.27;;;17.20;80.90;;;;;;5074119;28;20618;-12
2022/10/06 02:27:09;;;;;;;21.20;14.95;;;17.20;81.00;;;;;;5074001;28;20078;-12
2022/10/06 02:29:35;;;;;;;18.42;14.63;;;17.20;81.00;;;;;;5073334;28;20557;-12
2022/10/06 02:32:01;;;;;;;20.25;15.13;;;17.20;81.20;;;;;;5074167;28;20017;-12
2022/10/06 02:34:26;;;;;;;19.42;14.93;;;17.20;81.20;;;;;;5072741;28;20116;-12
2022/10/06 02:36:53;;;;;;;18.27;13.48;;;17.20;81.10;;;;;;5072621;28;20020;-12
2022/10/06 02:39:18;;;;;;;18.75;13.90;;;17.20;81.20;;;;;;5074285;28;20029;-12
2022/10/06 02:41:45;;;;;;;20.73;15.10;;;17.20;81.20;;;;;;5074342;28;20380;-12
2022/10/06 02:44:11;;;;;;;18.80;14.52;;;17.30;81.20;;;;;;5074004;28;20117;-12
2022/10/06 02:46:37;;;;;;;17.90;13.90;;;17.30;81.20;;;;;;5074105;28;20500;-12
2022/10/06 02:49:02;;;;;;;18.13;13.50;;;17.30;81.10;;;;;;5073830;28;20048;-12
2022/10/06 02:51:30;;;;;;;24.20;16.80;;;17.30;81.00;;;;;;5161445;22;20053;-17
2022/10/06 02:53:56;;;;;;;20.90;16.77;;;17.30;81.00;;;;;;5130730;22;20056;-16
2022/10/06 02:56:25;;;;;;;22.70;17.83;;;17.30;81.00;;;;;;5073691;28;20031;-15
2022/10/06 02:58:52;;;;;;;24.98;18.05;;;17.30;81.00;;;;;;5073421;28;20476;-15
2022/10/06 03:01:21;;;;;;;25.55;18.08;;;17.30;81.10;;;;;;5073895;28;20052;-16
2022/10/06 03:03:47;;;;;;;22.88;17.77;;;17.20;81.10;;;;;;5074238;28;20534;-16
2022/10/06 03:06:22;;;;;;;22.60;16.88;;;17.30;81.00;;;;;;5073427;28;20181;-16
2022/10/06 03:08:59;;;;;;;23.27;17.95;;;17.30;81.00;;;;;;5073326;28;20029;-15
2022/10/06 03:11:28;;;;;;;23.83;18.02;;;17.30;80.90;;;;;;5073472;28;20152;-15
2022/10/06 03:13:56;;;;;;;26.02;20.38;;;17.30;80.90;;;;;;5073688;28;20021;-16
2022/10/06 03:16:30;;;;;;;26.95;20.70;;;17.30;81.10;;;;;;5073692;28;20103;-15
2022/10/06 03:18:57;;;;;;;24.98;20.63;;;17.30;81.10;;;;;;5073271;28;20472;-16
2022/10/06 03:21:29;;;;;;;30.38;23.60;;;17.30;81.30;;;;;;5073318;28;20048;-16
2022/10/06 03:23:56;;;;;;;26.50;19.95;;;17.30;81.40;;;;;;5073390;28;20446;-16
2022/10/06 03:26:27;;;;;;;22.27;16.70;;;17.30;81.40;;;;;;5073555;28;20063;-15
2022/10/06 03:28:54;;;;;;;23.60;17.83;;;17.30;81.10;;;;;;5073898;28;20035;-15
2022/10/06 03:31:20;;;;;;;23.10;19.02;;;17.30;81.10;;;;;;5073953;28;20429;-16
2022/10/06 03:33:46;;;;;;;23.45;16.90;;;17.30;81.30;;;;;;5073795;28;20044;-15
2022/10/06 03:36:15;;;;;;;23.45;17.17;;;17.30;81.10;;;;;;5073133;28;20063;-16
2022/10/06 03:38:41;;;;;;;21.23;16.92;;;17.30;81.10;;;;;;5072962;28;20064;-15
2022/10/06 03:41:11;;;;;;;26.10;19.17;;;17.30;81.30;;;;;;5073267;28;20515;-15
2022/10/06 03:43:38;;;;;;;32.15;24.35;;;17.30;81.40;;;;;;5073503;28;20025;-15
2022/10/06 03:46:06;;;;;;;24.05;18.17;;;17.20;81.50;;;;;;5072885;28;20541;-15
2022/10/06 03:48:34;;;;;;;27.17;19.58;;;17.20;81.40;;;;;;5073298;28;20021;-16
2022/10/06 03:51:03;;;;;;;32.00;21.92;;;17.20;81.40;;;;;;5073013;28;20483;-15
2022/10/06 03:53:30;;;;;;;25.15;19.13;;;17.20;81.60;;;;;;5072643;28;20072;-16
2022/10/06 03:56:16;;;;;;;24.92;18.75;;;17.20;81.60;;;;;;5055075;28;20031;-16
2022/10/06 03:58:44;;;;;;;28.88;21.13;;;17.20;81.30;;;;;;5073284;28;20043;-15
2022/10/06 04:01:26;;;;;;;23.73;17.25;;;17.20;82.00;;;;;;5072720;28;20418;-15
2022/10/06 04:03:54;;;;;;;27.60;20.98;;;17.20;81.70;;;;;;5073148;28;20475;-16
2022/10/06 04:06:22;;;;;;;32.58;22.02;;;17.10;81.60;;;;;;5072838;28;20036;-16
2022/10/06 04:08:49;;;;;;;34.03;24.30;;;17.10;82.00;;;;;;5072748;28;20025;-16
2022/10/06 04:11:21;;;;;;;31.60;23.00;;;17.00;82.20;;;;;;5073108;28;20028;-16
2022/10/06 04:13:51;;;;;;;34.08;24.90;;;17.00;82.60;;;;;;5073103;28;20103;-16
2022/10/06 04:16:22;;;;;;;31.27;21.50;;;16.90;82.80;;;;;;5054827;28;20361;-15
2022/10/06 04:18:54;;;;;;;29.58;22.58;;;16.90;82.90;;;;;;5054735;28;20021;-15
2022/10/06 04:21:21;;;;;;;33.70;23.73;;;16.90;83.10;;;;;;5073034;28;20047;-15
2022/10/06 04:23:47;;;;;;;29.15;20.70;;;16.80;83.30;;;;;;5072603;28;20487;-16
2022/10/06 04:26:16;;;;;;;26.05;20.00;;;16.80;82.90;;;;;;5072551;28;20028;-15
2022/10/06 04:28:44;;;;;;;25.02;16.80;;;16.80;82.80;;;;;;5073008;28;20029;-16
2022/10/06 04:31:17;;;;;;;26.33;17.40;;;16.80;82.50;;;;;;5072949;28;20431;-15
2022/10/06 04:33:45;;;;;;;32.30;21.27;;;16.80;82.40;;;;;;5072860;28;20024;-16
2022/10/06 04:36:21;;;;;;;28.60;21.90;;;16.90;82.70;;;;;;5072487;28;20070;-17
2022/10/06 04:38:49;;;;;;;26.10;19.73;;;16.80;82.60;;;;;;5072541;28;20024;-16
2022/10/06 04:41:17;;;;;;;29.70;19.67;;;16.80;82.90;;;;;;5072898;28;20170;-16
2022/10/06 04:43:47;;;;;;;23.73;17.15;;;16.80;82.90;;;;;;5072879;28;20056;-16
2022/10/06 04:46:14;;;;;;;23.10;17.13;;;16.80;82.60;;;;;;5073511;28;20048;-16
2022/10/06 04:48:40;;;;;;;20.45;14.95;;;16.70;82.60;;;;;;5072318;28;20037;-16
2022/10/06 04:51:10;;;;;;;21.25;16.30;;;16.80;82.50;;;;;;5072387;28;20031;-16
2022/10/06 04:53:36;;;;;;;23.45;17.83;;;16.80;82.30;;;;;;5075660;28;20052;-16
2022/10/06 04:56:16;;;;;;;24.52;17.08;;;16.80;82.30;;;;;;5076404;28;20031;-16
2022/10/06 04:58:48;;;;;;;21.27;15.45;;;16.70;82.00;;;;;;5076246;28;20024;-14
2022/10/06 05:01:15;;;;;;;26.58;18.17;;;16.70;81.90;;;;;;5075834;28;20162;-17
2022/10/06 05:03:42;;;;;;;23.77;16.83;;;16.70;81.80;;;;;;5075932;28;20020;-15
2022/10/06 05:06:32;;;;;;;29.08;20.42;;;16.70;81.80;;;;;;5075682;28;20119;-15
2022/10/06 05:09:05;;;;;;;22.63;16.13;;;16.60;81.80;;;;;;5074968;28;20036;-16
2022/10/06 05:11:32;;;;;;;21.88;15.20;;;16.60;81.70;;;;;;5076131;28;20020;-15
2022/10/06 05:13:58;;;;;;;25.35;17.63;;;16.50;81.70;;;;;;5076342;28;20040;-15
2022/10/06 05:16:27;;;;;;;23.88;17.80;;;16.60;81.80;;;;;;5075924;28;20383;-15
2022/10/06 05:18:53;;;;;;;29.95;21.17;;;16.50;81.80;;;;;;5075431;28;20103;-15
2022/10/06 05:21:22;;;;;;;32.40;21.95;;;16.50;81.80;;;;;;5075475;28;20147;-16
2022/10/06 05:23:49;;;;;;;30.73;20.98;;;16.40;81.90;;;;;;5075592;28;20433;-16
2022/10/06 05:26:24;;;;;;;27.92;20.08;;;16.40;81.80;;;;;;5075653;28;20032;-16
2022/10/06 05:28:51;;;;;;;28.20;18.90;;;16.40;81.90;;;;;;5075967;28;20096;-16
2022/10/06 05:31:22;;;;;;;23.92;17.13;;;16.40;81.80;;;;;;5075203;28;20078;-16
2022/10/06 05:33:48;;;;;;;29.60;20.60;;;16.40;81.80;;;;;;5075591;28;20020;-16
2022/10/06 05:36:17;;;;;;;26.70;18.00;;;16.40;81.80;;;;;;5075590;28;20098;-15
2022/10/06 05:38:44;;;;;;;25.20;18.20;;;16.40;81.60;;;;;;5075132;28;20031;-15
2022/10/06 05:41:11;;;;;;;26.88;18.98;;;16.40;81.80;;;;;;5075042;28;20033;-16
2022/10/06 05:43:38;;;;;;;32.15;23.05;;;16.50;81.80;;;;;;5075004;28;20060;-16
2022/10/06 05:46:16;;;;;;;32.85;21.67;;;16.50;81.80;;;;;;5075226;28;20108;-15
2022/10/06 05:48:46;;;;;;;25.27;18.38;;;16.40;81.70;;;;;;5075076;28;20029;-16
2022/10/06 05:51:12;;;;;;;25.25;17.88;;;16.40;81.70;;;;;;5075056;28;20020;-15
2022/10/06 05:53:38;;;;;;;29.25;19.77;;;16.40;81.70;;;;;;5074815;28;20033;-14
2022/10/06 05:56:06;;;;;;;35.75;23.98;;;16.40;81.90;;;;;;5075092;28;20028;-17
2022/10/06 05:58:33;;;;;;;35.30;24.27;;;16.40;82.20;;;;;;5075051;28;20020;-16
2022/10/06 06:01:30;;;;;;;33.97;22.92;;;16.50;82.40;;;;;;5074821;28;20021;-17
2022/10/06 06:04:05;;;;;;;28.40;20.25;;;16.50;82.20;;;;;;5012983;28;20034;-16
2022/10/06 06:06:40;;;;;;;25.48;18.98;;;16.40;82.00;;;;;;5013819;28;20034;-15
2022/10/06 06:09:15;;;;;;;26.02;16.58;;;16.50;81.90;;;;;;5012698;28;20034;-16
2022/10/06 06:11:43;;;;;;;25.20;18.77;;;16.60;81.60;;;;;;5013532;28;20064;-16
2022/10/06 06:14:15;;;;;;;32.88;21.00;;;16.60;81.70;;;;;;5013399;28;20066;-16
2022/10/06 06:16:43;;;;;;;27.27;19.25;;;16.60;81.40;;;;;;5012759;28;20029;-16
2022/10/06 06:19:11;;;;;;;26.77;18.88;;;16.70;81.40;;;;;;5012429;28;20034;-15
2022/10/06 06:21:37;;;;;;;35.55;23.38;;;16.80;81.30;;;;;;5012789;28;20041;-15
2022/10/06 06:24:04;;;;;;;22.73;16.67;;;16.80;81.20;;;;;;5012700;28;20149;-16
2022/10/06 06:26:33;;;;;;;24.38;16.55;;;16.90;81.00;;;;;;5013185;28;20022;-16
2022/10/06 06:29:04;;;;;;;31.42;20.75;;;16.90;80.80;;;;;;5012360;28;20025;-15
2022/10/06 06:31:33;;;;;;;28.35;19.60;;;17.10;81.00;;;;;;5012535;28;20180;-15
2022/10/06 06:34:01;;;;;;;37.17;25.10;;;17.10;80.90;;;;;;5012730;28;20034;-16
2022/10/06 06:36:28;;;;;;;29.92;20.20;;;17.20;80.60;;;;;;5012612;28;20026;-16
2022/10/06 06:38:57;;;;;;;29.30;20.70;;;17.30;80.20;;;;;;5011875;28;20106;-16
2022/10/06 06:41:26;;;;;;;34.85;23.77;;;17.30;80.00;;;;;;5062967;28;20076;-15
2022/10/06 06:43:53;;;;;;;33.25;22.85;;;17.40;79.90;;;;;;5074140;28;20047;-15
2022/10/06 06:46:25;;;;;;;36.03;24.20;;;17.40;80.30;;;;;;5073832;28;20107;-16
2022/10/06 06:48:53;;;;;;;31.83;22.30;;;17.40;80.30;;;;;;5073791;28;20028;-16
2022/10/06 06:51:21;;;;;;;28.00;19.63;;;17.50;80.20;;;;;;5073625;28;20028;-15
2022/10/06 06:53:49;;;;;;;38.20;25.83;;;17.50;79.90;;;;;;5073298;28;20139;-16
2022/10/06 06:56:15;;;;;;;29.23;20.15;;;17.60;79.90;;;;;;5074008;28;20107;-17
2022/10/06 06:58:46;;;;;;;29.98;20.95;;;17.60;79.70;;;;;;5073771;28;20025;-15
2022/10/06 07:01:14;;;;;;;35.92;24.10;;;17.70;79.50;;;;;;5073584;28;20388;-16
2022/10/06 07:03:41;;;;;;;33.92;23.40;;;17.90;79.50;;;;;;5073804;28;20494;-15
2022/10/06 07:06:15;;;;;;;41.25;27.40;;;18.00;79.20;;;;;;5073646;28;20071;-15
2022/10/06 07:08:44;;;;;;;43.90;29.13;;;18.00;78.70;;;;;;5073471;28;20112;-15
2022/10/06 07:11:26;;;;;;;42.25;28.33;;;18.10;78.60;;;;;;5073538;28;20020;-16
2022/10/06 07:13:56;;;;;;;39.05;27.02;;;18.10;78.60;;;;;;5073438;28;20028;-15
2022/10/06 07:25:06;;;;;;;35.28;23.38;;;18.40;78.30;;;;;;5073242;28;20078;-14
2022/10/06 07:27:49;;;;;;;37.45;26.90;;;18.50;78.20;;;;;;5073337;28;20013;-16
2022/10/06 07:30:22;;;;;;;35.72;23.75;;;18.70;78.00;;;;;;5073495;28;20024;-15
2022/10/06 07:32:50;;;;;;;31.88;22.25;;;18.90;77.50;;;;;;5055660;28;20028;-15
2022/10/06 07:35:21;;;;;;;37.58;24.75;;;19.10;77.30;;;;;;5073129;28;20082;-16
2022/10/06 07:37:48;;;;;;;30.95;21.38;;;19.40;76.90;;;;;;5073408;28;20021;-15
2022/10/06 07:40:16;;;;;;;31.20;22.90;;;19.60;76.20;;;;;;5073303;28;20032;-15
2022/10/06 07:42:48;;;;;;;37.67;24.30;;;19.90;75.60;;;;;;5073083;28;20021;-16
2022/10/06 07:45:38;;;;;;;39.92;28.05;;;20.00;74.90;;;;;;5073845;28;20078;-15
2022/10/06 07:48:14;;;;;;;34.63;22.73;;;20.20;74.70;;;;;;5073368;28;20075;-16
2022/10/06 07:50:42;;;;;;;30.38;21.45;;;20.30;74.40;;;;;;5073057;28;20039;-15
2022/10/06 07:53:08;;;;;;;38.67;23.80;;;20.40;74.20;;;;;;5073128;28;20025;-16
2022/10/06 07:55:38;;;;;;;34.78;25.55;;;20.50;74.00;;;;;;5072548;28;20496;-16
2022/10/06 07:58:16;;;;;;;38.28;25.67;;;20.70;73.40;;;;;;5073187;28;20083;-15
2022/10/06 08:00:43;;;;;;;36.53;24.58;;;20.70;73.40;;;;;;5072866;28;20033;-16
2022/10/06 08:03:11;;;;;;;35.20;23.17;;;20.80;73.20;;;;;;5072671;28;20024;-15
2022/10/06 08:05:38;;;;;;;26.83;19.63;;;20.80;72.80;;;;;;5072990;28;20069;-15
2022/10/06 08:08:05;;;;;;;37.25;24.85;;;20.90;73.20;;;;;;5073088;28;20041;-15
2022/10/06 08:10:31;;;;;;;30.88;20.23;;;21.10;72.90;;;;;;5072850;28;20450;-15
2022/10/06 08:12:57;;;;;;;31.35;21.55;;;21.30;72.90;;;;;;5072568;28;20028;-16
2022/10/06 08:15:23;;;;;;;30.95;22.40;;;21.50;71.90;;;;;;5073006;28;20468;-15
2022/10/06 08:17:52;;;;;;;27.27;17.63;;;21.70;71.50;;;;;;5073014;28;20017;-15
2022/10/06 08:20:19;;;;;;;26.42;19.42;;;21.80;71.50;;;;;;5073043;28;20029;-15
2022/10/06 08:22:47;;;;;;;24.75;17.50;;;21.90;70.70;;;;;;5072673;28;20063;-15
2022/10/06 08:25:13;;;;;;;28.45;20.25;;;22.10;70.90;;;;;;5072694;28;20024;-16
2022/10/06 08:27:43;;;;;;;31.02;20.52;;;22.20;69.80;;;;;;5075117;28;20391;-15
2022/10/06 08:30:11;;;;;;;23.52;17.27;;;22.30;69.10;;;;;;5076828;28;20115;-15
2022/10/06 08:32:37;;;;;;;25.58;17.90;;;22.40;69.50;;;;;;5076764;28;20043;-15
2022/10/06 08:35:04;;;;;;;22.42;15.73;;;22.40;68.50;;;;;;5076185;28;20034;-14
2022/10/06 08:37:30;;;;;;;23.45;17.42;;;22.50;68.80;;;;;;5076805;28;20429;-14
2022/10/06 08:39:57;;;;;;;27.40;18.80;;;22.70;68.30;;;;;;5076339;28;20031;-14
2022/10/06 08:42:37;;;;;;;21.80;14.55;;;22.70;67.60;;;;;;5076567;28;20375;-15
2022/10/06 08:45:10;;;;;;;29.85;19.00;;;22.80;68.30;;;;;;5075980;28;20045;-15
2022/10/06 08:47:36;;;;;;;23.52;17.35;;;23.00;67.80;;;;;;5076520;28;20483;-15
2022/10/06 08:50:08;;;;;;;22.05;15.93;;;23.20;67.30;;;;;;5076132;28;20107;-14
2022/10/06 08:52:44;;;;;;;18.70;13.95;;;23.40;66.60;;;;;;5076372;28;20017;-15
2022/10/06 08:55:17;;;;;;;19.45;14.52;;;23.50;66.20;;;;;;5075635;28;20507;-15
2022/10/06 08:58:02;;;;;;;20.90;16.08;;;23.70;64.90;;;;;;5076318;28;20028;-14
2022/10/06 09:00:31;;;;;;;16.27;12.07;;;23.90;65.40;;;;;;5076220;28;20024;-15
2022/10/06 09:02:59;;;;;;;19.17;14.38;;;24.10;65.20;;;;;;5075800;28;20017;-14
2022/10/06 09:05:28;;;;;;;19.52;12.32;;;24.30;64.00;;;;;;5076055;28;20029;-14
2022/10/06 09:08:36;;;;;;;21.60;15.10;;;24.40;64.40;;;;;;5075784;28;20035;-14
2022/10/06 09:11:37;;;;;;;17.08;12.88;;;24.50;62.30;;;;;;5075732;28;20021;-14
2022/10/06 09:14:23;;;;;;;18.08;12.32;;;24.60;62.00;;;;;;5076113;28;20124;-15
2022/10/06 09:16:59;;;;;;;16.35;11.68;;;24.70;61.40;;;;;;5075803;28;20017;-15
2022/10/06 09:19:54;;;;;;;18.38;12.80;;;24.90;63.10;;;;;;5076162;28;20107;-15
2022/10/06 09:22:23;;;;;;;17.92;12.55;;;25.00;61.40;;;;;;5075907;28;20036;-15
2022/10/06 09:24:55;;;;;;;19.02;13.63;;;25.10;62.30;;;;;;5075523;28;20050;-15
2022/10/06 09:27:28;;;;;;;15.23;11.03;;;25.40;61.80;;;;;;5075519;28;20475;-14
2022/10/06 09:29:55;;;;;;;16.60;11.73;;;25.50;61.20;;;;;;5057534;28;20604;-15
2022/10/06 09:32:23;;;;;;;15.32;10.82;;;25.70;60.10;;;;;;5075338;28;20051;-15
2022/10/06 09:34:54;;;;;;;14.02;9.98;;;25.80;60.00;;;;;;5075497;28;20020;-15
2022/10/06 09:37:22;;;;;;;16.95;9.80;;;25.90;60.00;;;;;;5075317;28;20075;-15
2022/10/06 09:39:50;;;;;;;15.90;12.13;;;26.10;59.80;;;;;;5075498;28;20048;-14
2022/10/06 09:42:27;;;;;;;18.70;13.05;;;26.20;59.10;;;;;;5075496;28;20025;-15
2022/10/06 09:45:06;;;;;;;13.68;10.55;;;26.20;58.70;;;;;;5074911;28;20093;-15
2022/10/06 09:47:40;;;;;;;15.73;10.82;;;26.40;58.50;;;;;;5075568;28;20044;-15
2022/10/06 09:50:26;;;;;;;11.60;8.13;;;26.70;58.30;;;;;;5075070;28;20116;-15
2022/10/06 09:52:59;;;;;;;14.02;10.07;;;26.70;56.10;;;;;;5074881;28;20029;-15
2022/10/06 09:55:29;;;;;;;13.55;9.13;;;26.70;56.90;;;;;;5074721;28;20028;-15
2022/10/06 09:57:56;;;;;;;13.95;9.38;;;26.80;57.10;;;;;;5075469;28;20471;-15
2022/10/06 10:00:29;;;;;;;13.90;9.98;;;26.90;56.10;;;;;;5074805;28;20032;-15
2022/10/06 10:03:08;;;;;;;14.15;10.38;;;26.90;54.70;;;;;;5074539;28;20499;-15
2022/10/06 10:05:37;;;;;;;12.30;9.25;;;27.00;53.80;;;;;;5074620;28;20500;-15
2022/10/06 10:08:26;;;;;;;12.18;8.52;;;26.70;54.50;;;;;;5074914;28;20036;-14
2022/10/06 10:13:52;;;;;;;15.63;11.13;;;26.60;52.90;;;;;;5074930;28;20046;-15
2022/10/06 10:16:19;;;;;;;11.77;7.88;;;26.80;56.10;;;;;;5074816;28;20474;-14
2022/10/06 10:18:48;;;;;;;12.60;9.20;;;27.00;55.40;;;;;;5074410;28;20039;-14
2022/10/06 10:21:28;;;;;;;11.25;7.43;;;27.40;54.80;;;;;;5074381;28;20498;-15
2022/10/06 10:23:57;;;;;;;12.88;9.00;;;27.70;53.90;;;;;;5074299;28;20085;-15
2022/10/06 10:26:34;;;;;;;11.57;8.40;;;28.10;53.30;;;;;;5074196;28;20373;-15
2022/10/06 10:29:21;;;;;;;10.82;8.70;;;28.30;52.70;;;;;;5073993;28;20127;-14
2022/10/06 10:32:04;;;;;;;11.82;8.95;;;27.90;50.10;;;;;;5074167;28;20016;-15
2022/10/06 10:34:43;;;;;;;10.43;7.60;;;27.70;52.60;;;;;;5075314;28;20032;-14
2022/10/06 10:37:23;;;;;;;10.57;7.97;;;27.60;53.40;;;;;;5073944;28;20048;-15
2022/10/06 10:40:14;;;;;;;15.50;11.88;;;27.80;53.50;;;;;;5073986;28;20027;-15
2022/10/06 10:43:01;;;;;;;12.45;7.90;;;28.00;51.40;;;;;;5073956;28;20025;-15
2022/10/06 10:45:35;;;;;;;10.82;7.78;;;28.50;51.50;;;;;;5056059;28;20090;-15
2022/10/06 10:48:17;;;;;;;12.00;8.85;;;28.90;49.90;;;;;;5074251;28;20043;-15
2022/10/06 10:51:11;;;;;;;11.48;8.50;;;29.40;49.40;;;;;;5073541;28;20054;-14
2022/10/06 10:54:02;;;;;;;12.05;8.75;;;29.90;48.70;;;;;;5065761;28;20056;-15
2022/10/06 10:56:30;;;;;;;12.90;9.25;;;30.40;46.90;;;;;;5074374;28;20482;-15
2022/10/06 10:59:19;;;;;;;10.88;7.53;;;30.70;45.90;;;;;;5073549;28;20021;-14
2022/10/06 11:02:11;;;;;;;11.88;8.13;;;31.00;45.70;;;;;;5073662;28;20035;-15
2022/10/06 11:04:46;;;;;;;11.77;9.30;;;31.50;44.00;;;;;;5073751;28;20036;-15
2022/10/06 11:07:32;;;;;;;14.18;10.40;;;31.90;44.20;;;;;;5074111;28;20038;-15
2022/10/06 11:10:16;;;;;;;12.55;9.55;;;32.00;41.90;;;;;;5073656;28;20427;-15
2022/10/06 11:13:09;;;;;;;14.38;11.07;;;32.00;41.80;;;;;;5073966;28;20059;-15
2022/10/06 11:15:51;;;;;;;12.35;9.73;;;32.20;42.10;;;;;;5073778;28;20039;-16
2022/10/06 11:18:28;;;;;;;12.93;9.15;;;32.10;42.00;;;;;;5073691;28;20073;-15
2022/10/06 11:21:02;;;;;;;15.15;12.20;;;32.00;42.80;;;;;;5073733;28;20484;-15
2022/10/06 11:24:01;;;;;;;13.27;10.40;;;32.20;43.50;;;;;;5073837;28;20027;-15
2022/10/06 11:26:27;;;;;;;13.93;10.68;;;32.20;40.40;;;;;;5073575;28;20472;-16
2022/10/06 11:29:05;;;;;;;11.82;9.02;;;32.20;42.70;;;;;;5073123;28;20029;-15
2022/10/06 11:31:38;;;;;;;17.35;13.82;;;32.30;42.60;;;;;;5055314;28;20051;-16
2022/10/06 11:34:05;;;;;;;14.13;10.27;;;32.40;40.90;;;;;;5073175;28;20055;-17
2022/10/06 11:37:16;;;;;;;14.00;10.68;;;32.00;42.10;;;;;;5073136;28;20091;-16
2022/10/06 11:39:44;;;;;;;13.27;11.02;;;31.40;42.50;;;;;;5073098;28;20025;-14
2022/10/06 11:42:57;;;;;;;14.18;10.85;;;31.10;43.70;;;;;;5073094;28;20054;-16
2022/10/06 11:45:34;;;;;;;12.63;9.93;;;30.70;43.00;;;;;;5011248;28;20034;-16
2022/10/06 11:48:28;;;;;;;14.25;10.85;;;30.40;44.90;;;;;;5011392;28;20102;-16
2022/10/06 11:50:56;;;;;;;14.02;11.05;;;30.50;45.20;;;;;;5011176;28;20601;-16
2022/10/06 11:53:27;;;;;;;15.35;11.95;;;30.50;45.10;;;;;;5010929;28;20401;-17
2022/10/06 11:56:38;;;;;;;12.57;9.68;;;30.40;45.00;;;;;;5011263;28;20075;-16
2022/10/06 11:59:25;;;;;;;12.63;10.35;;;29.90;45.20;;;;;;4972675;28;20035;-15
2022/10/06 12:01:53;;;;;;;13.77;11.20;;;29.70;46.40;;;;;;4958499;28;20023;-16
2022/10/06 12:04:20;;;;;;;15.75;12.93;;;29.70;44.70;;;;;;4976367;28;20085;-15
2022/10/06 12:06:46;;;;;;;16.50;11.43;;;29.80;44.40;;;;;;4976088;28;20402;-15
2022/10/06 12:09:39;;;;;;;12.15;10.23;;;30.00;44.40;;;;;;4975886;28;20475;-15
2022/10/06 12:12:16;;;;;;;11.23;9.35;;;30.40;44.30;;;;;;4959939;28;20023;-14
2022/10/06 12:15:05;;;;;;;10.13;8.40;;;31.00;43.00;;;;;;4976893;28;20557;-15
2022/10/06 12:17:40;;;;;;;13.02;9.43;;;31.60;42.20;;;;;;5035006;28;20044;-15
2022/10/06 12:20:28;;;;;;;12.82;9.13;;;32.10;40.50;;;;;;5034805;28;20076;-16
2022/10/06 12:23:14;;;;;;;13.95;11.15;;;32.50;39.30;;;;;;5034855;28;20037;-15
2022/10/06 12:25:49;;;;;;;15.45;11.23;;;32.60;39.20;;;;;;5034568;28;20033;-16
2022/10/06 12:28:34;;;;;;;13.80;12.07;;;32.40;39.60;;;;;;5034691;28;20037;-16
2022/10/06 12:31:15;;;;;;;14.73;11.23;;;32.30;39.60;;;;;;5076354;28;20021;-16
2022/10/06 12:33:42;;;;;;;16.23;12.45;;;32.30;40.30;;;;;;5076803;28;20024;-16
2022/10/06 12:36:30;;;;;;;13.30;10.18;;;32.50;40.00;;;;;;5076364;28;20425;-16
2022/10/06 12:39:20;;;;;;;12.75;10.15;;;32.80;40.10;;;;;;5076493;28;20475;-16
2022/10/06 12:42:06;;;;;;;12.95;9.90;;;33.10;39.10;;;;;;5076591;28;20526;-16
2022/10/06 12:44:44;;;;;;;13.48;11.15;;;33.50;38.20;;;;;;5076430;28;20031;-16
2022/10/06 12:47:24;;;;;;;12.45;9.57;;;33.70;38.20;;;;;;5076024;28;20055;-16
2022/10/06 12:49:53;;;;;;;12.20;8.88;;;33.80;38.30;;;;;;5076508;28;20020;-15
2022/10/06 12:52:49;;;;;;;12.20;9.30;;;33.90;37.70;;;;;;5076152;28;20017;-16
2022/10/06 12:55:39;;;;;;;15.30;11.65;;;34.00;36.90;;;;;;5053141;28;20049;-16
2022/10/06 12:58:19;;;;;;;13.35;10.32;;;34.00;36.30;;;;;;5056022;28;20029;-15
2022/10/06 13:00:46;;;;;;;11.75;8.80;;;33.90;36.70;;;;;;5056263;28;20496;-15
2022/10/06 13:03:22;;;;;;;12.07;8.05;;;33.80;37.20;;;;;;5056263;28;20090;-16
2022/10/06 13:05:59;;;;;;;13.38;9.13;;;33.80;37.30;;;;;;5056067;28;20032;-15